Rondeau, Canada
Current Conditions -  °F | °C
As of 1:00 AM on Friday 28 Nov 2014 (Local Time) from CYCK Reporting Station
Light Snow Light Snow  
Wind Chill: 12°   Ceiling: 2900
Heat Index: 25°   Visibility: 9mi
Dew Point: 16°   Wind: 16mph
Humidity: 69%   Direction: 340°NNW
Pressure: 30.27"   Gusts: NA
Location:  42.28°N, 81.87°W
Report Text: CYCK 280600Z AUTO 34014KT 9SM -SN BKN029 BKN040 OVC047 M04/M09 A3027 RMK SLP259
Loading
Personal Weather Stations






























Interactive Weather Map New forecast layout! Learn more

10-Day Weather Forecast

Advertisements
Track Severe Weather on mobile